Terminal Aerodrome Forecast
Issued by NWS Portland, ME

Home | Current Version | Previous Version | Text Only | Print | Product List | Glossary On
Versions: 1 2 3 4 5 6 7 8 9 10 11 12 13 14 15 16 17 18 19 20 21
000
FTUS41 KGYX 222331
TAFCON
TAF
KCON 222331Z 2300/2324 VRB03KT P6SM SCT080 BKN200
     FM231700 19010G18KT P6SM SCT040 BKN100 PROB30 2319/2323 4SM
      -TSRA OVC040CB=

USA.gov is the U.S. government's official web portal to all federal, state and local government web resources and services.